sensor_id;sensor_type;location;lat;lon;timestamp;temperature;humidity
23051;DHT22;11693;51.358;12.410;2022-09-13T00:01:13;18.90;99.90
23051;DHT22;11693;51.358;12.410;2022-09-13T00:03:39;18.90;99.90
23051;DHT22;11693;51.358;12.410;2022-09-13T00:06:11;18.80;99.90
23051;DHT22;11693;51.358;12.410;2022-09-13T00:08:37;18.70;99.90
23051;DHT22;11693;51.358;12.410;2022-09-13T00:11:03;18.70;99.90
23051;DHT22;11693;51.358;12.410;2022-09-13T00:13:28;18.70;99.90
23051;DHT22;11693;51.358;12.410;2022-09-13T00:15:54;18.60;99.90
23051;DHT22;11693;51.358;12.410;2022-09-13T00:18:20;18.70;99.90
23051;DHT22;11693;51.358;12.410;2022-09-13T00:20:45;18.70;99.90
23051;DHT22;11693;51.358;12.410;2022-09-13T00:23:11;18.70;99.90
23051;DHT22;11693;51.358;12.410;2022-09-13T00:25:37;18.70;99.90
23051;DHT22;11693;51.358;12.410;2022-09-13T00:28:04;18.80;99.90
23051;DHT22;11693;51.358;12.410;2022-09-13T00:30:30;18.80;99.90
23051;DHT22;11693;51.358;12.410;2022-09-13T00:32:56;18.80;99.90
23051;DHT22;11693;51.358;12.410;2022-09-13T00:35:21;18.90;99.90
23051;DHT22;11693;51.358;12.410;2022-09-13T00:37:48;18.80;99.90
23051;DHT22;11693;51.358;12.410;2022-09-13T00:40:14;18.80;99.90
23051;DHT22;11693;51.358;12.410;2022-09-13T00:42:39;18.70;99.90
23051;DHT22;11693;51.358;12.410;2022-09-13T00:50:40;18.60;99.90
23051;DHT22;11693;51.358;12.410;2022-09-13T00:53:21;18.70;99.90
23051;DHT22;11693;51.358;12.410;2022-09-13T00:55:53;18.60;99.90
23051;DHT22;11693;51.358;12.410;2022-09-13T00:58:33;18.60;99.90
23051;DHT22;11693;51.358;12.410;2022-09-13T01:01:02;18.60;99.90
23051;DHT22;11693;51.358;12.410;2022-09-13T01:03:32;18.70;99.90
23051;DHT22;11693;51.358;12.410;2022-09-13T01:06:07;18.70;99.90
23051;DHT22;11693;51.358;12.410;2022-09-13T01:08:35;18.60;99.90
23051;DHT22;11693;51.358;12.410;2022-09-13T01:11:02;18.60;99.90
23051;DHT22;11693;51.358;12.410;2022-09-13T01:13:32;18.60;99.90
23051;DHT22;11693;51.358;12.410;2022-09-13T01:15:59;18.70;99.90
23051;DHT22;11693;51.358;12.410;2022-09-13T01:18:25;18.80;99.90
23051;DHT22;11693;51.358;12.410;2022-09-13T01:29:38;18.70;99.90
23051;DHT22;11693;51.358;12.410;2022-09-13T01:39:08;18.70;99.90
23051;DHT22;11693;51.358;12.410;2022-09-13T01:41:40;18.80;99.90
23051;DHT22;11693;51.358;12.410;2022-09-13T01:48:15;18.70;99.90
23051;DHT22;11693;51.358;12.410;2022-09-13T01:53:40;18.80;99.90
23051;DHT22;11693;51.358;12.410;2022-09-13T01:56:28;18.90;99.90
23051;DHT22;11693;51.358;12.410;2022-09-13T01:59:02;19.00;99.90
23051;DHT22;11693;51.358;12.410;2022-09-13T02:01:36;18.80;99.90
23051;DHT22;11693;51.358;12.410;2022-09-13T02:04:19;18.80;99.90
23051;DHT22;11693;51.358;12.410;2022-09-13T02:07:10;18.90;99.90
23051;DHT22;11693;51.358;12.410;2022-09-13T02:09:42;19.00;99.90
23051;DHT22;11693;51.358;12.410;2022-09-13T02:12:24;19.00;99.90
23051;DHT22;11693;51.358;12.410;2022-09-13T02:15:15;19.00;99.90
23051;DHT22;11693;51.358;12.410;2022-09-13T02:17:45;19.00;99.90
23051;DHT22;11693;51.358;12.410;2022-09-13T02:20:23;19.00;99.90
23051;DHT22;11693;51.358;12.410;2022-09-13T02:22:56;19.00;99.90
23051;DHT22;11693;51.358;12.410;2022-09-13T02:25:25;19.00;99.90
23051;DHT22;11693;51.358;12.410;2022-09-13T02:27:55;19.00;99.90
23051;DHT22;11693;51.358;12.410;2022-09-13T02:30:27;19.10;99.90
23051;DHT22;11693;51.358;12.410;2022-09-13T02:33:03;19.00;99.90
23051;DHT22;11693;51.358;12.410;2022-09-13T02:35:35;19.00;99.90
23051;DHT22;11693;51.358;12.410;2022-09-13T02:38:08;19.00;99.90
23051;DHT22;11693;51.358;12.410;2022-09-13T02:40:45;18.90;99.90
23051;DHT22;11693;51.358;12.410;2022-09-13T02:43:18;19.10;99.90
23051;DHT22;11693;51.358;12.410;2022-09-13T02:51:51;18.80;99.90
23051;DHT22;11693;51.358;12.410;2022-09-13T02:57:04;18.90;99.90
23051;DHT22;11693;51.358;12.410;2022-09-13T02:59:30;18.80;99.90
23051;DHT22;11693;51.358;12.410;2022-09-13T03:02:14;18.80;99.90
23051;DHT22;11693;51.358;12.410;2022-09-13T03:04:41;18.80;99.90
23051;DHT22;11693;51.358;12.410;2022-09-13T03:07:11;18.80;99.90
23051;DHT22;11693;51.358;12.410;2022-09-13T03:09:45;18.70;99.90
23051;DHT22;11693;51.358;12.410;2022-09-13T03:12:37;18.70;99.90
23051;DHT22;11693;51.358;12.410;2022-09-13T03:15:20;18.80;99.90
23051;DHT22;11693;51.358;12.410;2022-09-13T03:21:20;18.70;99.90
23051;DHT22;11693;51.358;12.410;2022-09-13T03:24:09;18.60;99.90
23051;DHT22;11693;51.358;12.410;2022-09-13T03:29:41;18.60;99.90
23051;DHT22;11693;51.358;12.410;2022-09-13T03:32:31;18.70;99.90
23051;DHT22;11693;51.358;12.410;2022-09-13T03:37:52;18.60;99.90
23051;DHT22;11693;51.358;12.410;2022-09-13T03:40:36;18.80;99.90
23051;DHT22;11693;51.358;12.410;2022-09-13T03:43:16;18.70;99.90
23051;DHT22;11693;51.358;12.410;2022-09-13T03:45:49;18.70;99.90
23051;DHT22;11693;51.358;12.410;2022-09-13T03:48:16;18.80;99.90
23051;DHT22;11693;51.358;12.410;2022-09-13T03:50:44;18.80;99.90
23051;DHT22;11693;51.358;12.410;2022-09-13T03:53:14;18.90;99.90
23051;DHT22;11693;51.358;12.410;2022-09-13T03:55:41;18.90;99.90
23051;DHT22;11693;51.358;12.410;2022-09-13T03:58:11;18.90;99.90
23051;DHT22;11693;51.358;12.410;2022-09-13T04:00:36;18.80;99.90
23051;DHT22;11693;51.358;12.410;2022-09-13T04:03:04;18.90;99.90
23051;DHT22;11693;51.358;12.410;2022-09-13T04:05:30;18.90;99.90
23051;DHT22;11693;51.358;12.410;2022-09-13T04:07:55;18.90;99.90
23051;DHT22;11693;51.358;12.410;2022-09-13T04:10:21;18.90;99.90
23051;DHT22;11693;51.358;12.410;2022-09-13T04:12:48;18.80;99.90
23051;DHT22;11693;51.358;12.410;2022-09-13T04:15:14;18.90;99.90
23051;DHT22;11693;51.358;12.410;2022-09-13T04:17:40;18.70;99.90
23051;DHT22;11693;51.358;12.410;2022-09-13T04:20:06;18.80;99.90
23051;DHT22;11693;51.358;12.410;2022-09-13T04:22:32;18.70;99.90
23051;DHT22;11693;51.358;12.410;2022-09-13T04:24:58;18.70;99.90
23051;DHT22;11693;51.358;12.410;2022-09-13T04:27:24;18.80;99.90
23051;DHT22;11693;51.358;12.410;2022-09-13T04:29:50;18.70;99.90
23051;DHT22;11693;51.358;12.410;2022-09-13T04:32:15;18.80;99.90
23051;DHT22;11693;51.358;12.410;2022-09-13T04:34:41;18.70;99.90
23051;DHT22;11693;51.358;12.410;2022-09-13T04:37:07;18.70;99.90
23051;DHT22;11693;51.358;12.410;2022-09-13T04:39:33;18.80;99.90
23051;DHT22;11693;51.358;12.410;2022-09-13T04:41:59;18.90;99.90
23051;DHT22;11693;51.358;12.410;2022-09-13T04:44:24;18.90;99.90
23051;DHT22;11693;51.358;12.410;2022-09-13T04:46:50;18.90;99.90
23051;DHT22;11693;51.358;12.410;2022-09-13T04:49:17;19.00;99.90
23051;DHT22;11693;51.358;12.410;2022-09-13T04:51:43;18.80;99.90
23051;DHT22;11693;51.358;12.410;2022-09-13T04:54:09;18.80;99.90
23051;DHT22;11693;51.358;12.410;2022-09-13T04:56:35;18.90;99.90
23051;DHT22;11693;51.358;12.410;2022-09-13T04:59:01;18.90;99.90
23051;DHT22;11693;51.358;12.410;2022-09-13T05:01:27;19.10;99.90
23051;DHT22;11693;51.358;12.410;2022-09-13T05:03:52;19.30;99.90
23051;DHT22;11693;51.358;12.410;2022-09-13T05:06:19;19.20;99.90
23051;DHT22;11693;51.358;12.410;2022-09-13T05:08:50;19.40;99.90
23051;DHT22;11693;51.358;12.410;2022-09-13T05:11:17;19.30;99.90
23051;DHT22;11693;51.358;12.410;2022-09-13T05:13:43;19.40;99.90
23051;DHT22;11693;51.358;12.410;2022-09-13T05:16:08;19.40;99.90
23051;DHT22;11693;51.358;12.410;2022-09-13T05:18:35;19.40;99.90
23051;DHT22;11693;51.358;12.410;2022-09-13T05:21:03;19.40;99.90
23051;DHT22;11693;51.358;12.410;2022-09-13T05:23:29;19.50;99.90
23051;DHT22;11693;51.358;12.410;2022-09-13T05:26:01;19.80;99.90
23051;DHT22;11693;51.358;12.410;2022-09-13T05:28:29;20.00;99.90
23051;DHT22;11693;51.358;12.410;2022-09-13T05:31:19;20.20;99.90
23051;DHT22;11693;51.358;12.410;2022-09-13T05:33:47;20.30;99.90
23051;DHT22;11693;51.358;12.410;2022-09-13T05:36:13;20.30;99.90
23051;DHT22;11693;51.358;12.410;2022-09-13T05:38:38;20.40;99.90
23051;DHT22;11693;51.358;12.410;2022-09-13T05:41:05;20.50;99.90
23051;DHT22;11693;51.358;12.410;2022-09-13T05:43:33;20.80;99.90
23051;DHT22;11693;51.358;12.410;2022-09-13T05:46:04;20.90;99.90
23051;DHT22;11693;51.358;12.410;2022-09-13T05:48:31;20.90;99.90
23051;DHT22;11693;51.358;12.410;2022-09-13T05:51:12;21.20;99.90
23051;DHT22;11693;51.358;12.410;2022-09-13T05:53:40;21.40;99.90
23051;DHT22;11693;51.358;12.410;2022-09-13T05:56:11;21.60;99.90
23051;DHT22;11693;51.358;12.410;2022-09-13T05:58:38;21.60;99.90
23051;DHT22;11693;51.358;12.410;2022-09-13T06:01:04;21.70;99.90
23051;DHT22;11693;51.358;12.410;2022-09-13T06:03:30;21.50;99.90
23051;DHT22;11693;51.358;12.410;2022-09-13T06:05:56;21.40;99.90
23051;DHT22;11693;51.358;12.410;2022-09-13T06:08:27;21.40;99.90
23051;DHT22;11693;51.358;12.410;2022-09-13T06:10:57;21.50;99.90
23051;DHT22;11693;51.358;12.410;2022-09-13T06:13:23;21.50;99.90
23051;DHT22;11693;51.358;12.410;2022-09-13T06:15:50;21.60;99.90
23051;DHT22;11693;51.358;12.410;2022-09-13T06:18:15;21.70;99.90
23051;DHT22;11693;51.358;12.410;2022-09-13T06:20:42;21.60;99.90
23051;DHT22;11693;51.358;12.410;2022-09-13T06:23:08;21.70;99.90
23051;DHT22;11693;51.358;12.410;2022-09-13T06:25:33;21.70;99.90
23051;DHT22;11693;51.358;12.410;2022-09-13T06:27:59;21.60;99.90
23051;DHT22;11693;51.358;12.410;2022-09-13T06:30:24;21.50;99.90
23051;DHT22;11693;51.358;12.410;2022-09-13T06:32:50;21.50;99.90
23051;DHT22;11693;51.358;12.410;2022-09-13T06:35:15;21.50;99.90
23051;DHT22;11693;51.358;12.410;2022-09-13T06:37:42;21.30;99.90
23051;DHT22;11693;51.358;12.410;2022-09-13T06:40:08;21.10;99.90
23051;DHT22;11693;51.358;12.410;2022-09-13T06:42:35;20.90;99.90
23051;DHT22;11693;51.358;12.410;2022-09-13T06:45:01;20.80;99.90
23051;DHT22;11693;51.358;12.410;2022-09-13T06:47:27;20.70;99.90
23051;DHT22;11693;51.358;12.410;2022-09-13T06:49:53;20.60;99.90
23051;DHT22;11693;51.358;12.410;2022-09-13T06:52:18;20.50;99.90
23051;DHT22;11693;51.358;12.410;2022-09-13T06:54:44;20.30;99.90
23051;DHT22;11693;51.358;12.410;2022-09-13T06:57:10;20.20;99.90
23051;DHT22;11693;51.358;12.410;2022-09-13T06:59:35;20.00;99.90
23051;DHT22;11693;51.358;12.410;2022-09-13T07:02:01;20.00;99.90
23051;DHT22;11693;51.358;12.410;2022-09-13T07:04:27;20.00;99.90
23051;DHT22;11693;51.358;12.410;2022-09-13T07:06:56;20.00;99.90
23051;DHT22;11693;51.358;12.410;2022-09-13T07:09:22;20.00;99.90
23051;DHT22;11693;51.358;12.410;2022-09-13T07:11:50;20.00;99.90
23051;DHT22;11693;51.358;12.410;2022-09-13T07:14:18;20.00;99.90
23051;DHT22;11693;51.358;12.410;2022-09-13T07:16:45;20.00;99.90
23051;DHT22;11693;51.358;12.410;2022-09-13T07:19:13;20.00;99.90
23051;DHT22;11693;51.358;12.410;2022-09-13T07:21:40;20.10;99.90
23051;DHT22;11693;51.358;12.410;2022-09-13T07:24:06;20.10;99.90
23051;DHT22;11693;51.358;12.410;2022-09-13T07:26:31;20.20;99.90
23051;DHT22;11693;51.358;12.410;2022-09-13T07:28:59;20.20;99.90
23051;DHT22;11693;51.358;12.410;2022-09-13T07:31:36;20.20;99.90
23051;DHT22;11693;51.358;12.410;2022-09-13T07:34:04;20.20;99.90
23051;DHT22;11693;51.358;12.410;2022-09-13T07:36:31;20.20;99.90
23051;DHT22;11693;51.358;12.410;2022-09-13T07:38:58;20.30;99.90
23051;DHT22;11693;51.358;12.410;2022-09-13T07:41:25;20.40;99.90
23051;DHT22;11693;51.358;12.410;2022-09-13T07:43:51;20.50;99.90
23051;DHT22;11693;51.358;12.410;2022-09-13T07:46:19;20.60;99.90
23051;DHT22;11693;51.358;12.410;2022-09-13T07:48:46;20.70;99.90
23051;DHT22;11693;51.358;12.410;2022-09-13T07:53:40;20.80;99.90
23051;DHT22;11693;51.358;12.410;2022-09-13T07:56:10;21.00;99.90
23051;DHT22;11693;51.358;12.410;2022-09-13T07:58:37;21.20;99.90
23051;DHT22;11693;51.358;12.410;2022-09-13T08:01:16;21.30;99.90
23051;DHT22;11693;51.358;12.410;2022-09-13T08:03:50;21.40;99.90
23051;DHT22;11693;51.358;12.410;2022-09-13T08:06:16;21.40;99.90
23051;DHT22;11693;51.358;12.410;2022-09-13T08:08:42;21.30;99.90
23051;DHT22;11693;51.358;12.410;2022-09-13T08:11:19;21.30;99.90
23051;DHT22;11693;51.358;12.410;2022-09-13T08:13:46;21.50;99.90
23051;DHT22;11693;51.358;12.410;2022-09-13T08:16:12;21.60;99.90
23051;DHT22;11693;51.358;12.410;2022-09-13T08:18:43;21.60;99.90
23051;DHT22;11693;51.358;12.410;2022-09-13T08:21:09;21.80;99.90
23051;DHT22;11693;51.358;12.410;2022-09-13T08:23:34;22.00;99.90
23051;DHT22;11693;51.358;12.410;2022-09-13T08:26:01;22.00;99.90
23051;DHT22;11693;51.358;12.410;2022-09-13T08:28:31;22.20;99.90
23051;DHT22;11693;51.358;12.410;2022-09-13T08:31:05;22.30;99.90
23051;DHT22;11693;51.358;12.410;2022-09-13T08:33:31;22.40;99.90
23051;DHT22;11693;51.358;12.410;2022-09-13T08:35:57;22.60;99.90
23051;DHT22;11693;51.358;12.410;2022-09-13T08:38:23;22.70;99.90
23051;DHT22;11693;51.358;12.410;2022-09-13T08:41:03;22.90;99.90
23051;DHT22;11693;51.358;12.410;2022-09-13T08:44:02;23.00;99.90
23051;DHT22;11693;51.358;12.410;2022-09-13T08:46:39;23.00;99.90
23051;DHT22;11693;51.358;12.410;2022-09-13T08:49:11;22.90;99.90
23051;DHT22;11693;51.358;12.410;2022-09-13T08:51:48;23.00;99.90
23051;DHT22;11693;51.358;12.410;2022-09-13T08:54:16;23.00;99.90
23051;DHT22;11693;51.358;12.410;2022-09-13T09:02:45;23.20;99.90
23051;DHT22;11693;51.358;12.410;2022-09-13T09:05:21;23.20;99.90
23051;DHT22;11693;51.358;12.410;2022-09-13T09:07:51;23.50;99.90
23051;DHT22;11693;51.358;12.410;2022-09-13T09:10:19;23.70;99.90
23051;DHT22;11693;51.358;12.410;2022-09-13T09:13:07;24.00;99.90
23051;DHT22;11693;51.358;12.410;2022-09-13T09:15:49;24.20;99.90
23051;DHT22;11693;51.358;12.410;2022-09-13T09:18:35;24.20;99.90
23051;DHT22;11693;51.358;12.410;2022-09-13T09:21:03;24.20;99.90
23051;DHT22;11693;51.358;12.410;2022-09-13T09:23:44;24.30;99.90
23051;DHT22;11693;51.358;12.410;2022-09-13T09:28:57;24.40;99.90
23051;DHT22;11693;51.358;12.410;2022-09-13T09:32:03;24.30;99.90
23051;DHT22;11693;51.358;12.410;2022-09-13T09:35:14;24.30;99.90
23051;DHT22;11693;51.358;12.410;2022-09-13T09:37:46;24.60;99.90
23051;DHT22;11693;51.358;12.410;2022-09-13T09:40:15;24.70;99.90
23051;DHT22;11693;51.358;12.410;2022-09-13T09:42:44;24.90;99.90
23051;DHT22;11693;51.358;12.410;2022-09-13T09:45:46;25.10;99.90
23051;DHT22;11693;51.358;12.410;2022-09-13T09:48:14;25.40;99.90
23051;DHT22;11693;51.358;12.410;2022-09-13T09:50:48;25.80;99.90
23051;DHT22;11693;51.358;12.410;2022-09-13T09:53:39;26.20;99.90
23051;DHT22;11693;51.358;12.410;2022-09-13T09:56:25;26.50;99.90
23051;DHT22;11693;51.358;12.410;2022-09-13T09:58:53;26.60;99.90
23051;DHT22;11693;51.358;12.410;2022-09-13T10:01:24;26.70;99.90
23051;DHT22;11693;51.358;12.410;2022-09-13T10:06:24;27.30;99.90
23051;DHT22;11693;51.358;12.410;2022-09-13T10:09:01;27.90;99.90
23051;DHT22;11693;51.358;12.410;2022-09-13T10:11:47;28.20;99.90
23051;DHT22;11693;51.358;12.410;2022-09-13T10:14:26;28.50;99.90
23051;DHT22;11693;51.358;12.410;2022-09-13T10:17:04;28.80;99.90
23051;DHT22;11693;51.358;12.410;2022-09-13T10:19:31;29.00;99.70
23051;DHT22;11693;51.358;12.410;2022-09-13T10:22:05;29.10;98.30
23051;DHT22;11693;51.358;12.410;2022-09-13T10:24:34;29.10;97.40
23051;DHT22;11693;51.358;12.410;2022-09-13T10:27:01;29.30;96.90
23051;DHT22;11693;51.358;12.410;2022-09-13T10:29:28;29.60;96.60
23051;DHT22;11693;51.358;12.410;2022-09-13T10:31:55;29.90;94.50
23051;DHT22;11693;51.358;12.410;2022-09-13T10:34:28;29.60;93.90
23051;DHT22;11693;51.358;12.410;2022-09-13T10:40:38;29.20;93.50
23051;DHT22;11693;51.358;12.410;2022-09-13T10:43:00;29.00;93.70
23051;DHT22;11693;51.358;12.410;2022-09-13T10:45:29;28.70;93.70
23051;DHT22;11693;51.358;12.410;2022-09-13T10:48:04;28.50;94.30
23051;DHT22;11693;51.358;12.410;2022-09-13T10:50:30;28.50;93.90
23051;DHT22;11693;51.358;12.410;2022-09-13T10:52:57;28.60;94.40
23051;DHT22;11693;51.358;12.410;2022-09-13T10:55:37;28.90;94.10
23051;DHT22;11693;51.358;12.410;2022-09-13T11:06:26;29.00;91.80
23051;DHT22;11693;51.358;12.410;2022-09-13T11:11:50;28.50;92.60
23051;DHT22;11693;51.358;12.410;2022-09-13T11:14:25;28.60;92.80
23051;DHT22;11693;51.358;12.410;2022-09-13T11:17:05;28.60;92.60
23051;DHT22;11693;51.358;12.410;2022-09-13T11:19:40;28.80;92.80
23051;DHT22;11693;51.358;12.410;2022-09-13T11:22:20;29.20;92.20
23051;DHT22;11693;51.358;12.410;2022-09-13T11:30:31;31.00;90.10
23051;DHT22;11693;51.358;12.410;2022-09-13T11:33:34;31.40;88.40
23051;DHT22;11693;51.358;12.410;2022-09-13T11:39:16;31.50;86.20
23051;DHT22;11693;51.358;12.410;2022-09-13T11:44:55;31.20;84.60
23051;DHT22;11693;51.358;12.410;2022-09-13T11:52:56;31.70;84.50
23051;DHT22;11693;51.358;12.410;2022-09-13T11:55:32;32.70;82.10
23051;DHT22;11693;51.358;12.410;2022-09-13T11:58:07;34.00;78.50
23051;DHT22;11693;51.358;12.410;2022-09-13T12:00:40;34.30;77.10
23051;DHT22;11693;51.358;12.410;2022-09-13T12:05:45;34.60;73.90
23051;DHT22;11693;51.358;12.410;2022-09-13T12:08:28;34.40;73.60
23051;DHT22;11693;51.358;12.410;2022-09-13T12:10:59;33.80;73.90
23051;DHT22;11693;51.358;12.410;2022-09-13T12:13:30;33.20;75.10
23051;DHT22;11693;51.358;12.410;2022-09-13T12:16:00;32.60;75.10
23051;DHT22;11693;51.358;12.410;2022-09-13T12:18:48;32.20;77.30
23051;DHT22;11693;51.358;12.410;2022-09-13T12:21:20;31.50;79.00
23051;DHT22;11693;51.358;12.410;2022-09-13T12:26:35;30.30;81.40
23051;DHT22;11693;51.358;12.410;2022-09-13T12:31:46;30.00;84.00
23051;DHT22;11693;51.358;12.410;2022-09-13T12:34:43;30.00;83.90
23051;DHT22;11693;51.358;12.410;2022-09-13T12:37:39;30.10;83.80
23051;DHT22;11693;51.358;12.410;2022-09-13T12:48:48;29.00;85.60
23051;DHT22;11693;51.358;12.410;2022-09-13T13:02:33;28.80;87.00
23051;DHT22;11693;51.358;12.410;2022-09-13T13:05:06;28.60;87.00
23051;DHT22;11693;51.358;12.410;2022-09-13T13:07:42;28.60;87.90
23051;DHT22;11693;51.358;12.410;2022-09-13T13:10:41;28.50;88.90
23051;DHT22;11693;51.358;12.410;2022-09-13T13:13:12;28.50;88.10
23051;DHT22;11693;51.358;12.410;2022-09-13T13:18:45;28.50;89.10
23051;DHT22;11693;51.358;12.410;2022-09-13T13:21:29;28.60;89.20
23051;DHT22;11693;51.358;12.410;2022-09-13T13:31:39;28.90;85.90
23051;DHT22;11693;51.358;12.410;2022-09-13T13:46:42;29.80;85.20
23051;DHT22;11693;51.358;12.410;2022-09-13T13:59:53;32.10;77.80
23051;DHT22;11693;51.358;12.410;2022-09-13T14:02:24;31.70;77.00
23051;DHT22;11693;51.358;12.410;2022-09-13T14:05:14;31.20;77.30
23051;DHT22;11693;51.358;12.410;2022-09-13T14:13:29;29.80;81.00
23051;DHT22;11693;51.358;12.410;2022-09-13T14:17:01;29.60;81.40
23051;DHT22;11693;51.358;12.410;2022-09-13T14:19:59;29.10;82.60
23051;DHT22;11693;51.358;12.410;2022-09-13T14:22:28;28.70;82.80
23051;DHT22;11693;51.358;12.410;2022-09-13T14:24:55;28.60;84.00
23051;DHT22;11693;51.358;12.410;2022-09-13T14:29:50;28.60;84.60
23051;DHT22;11693;51.358;12.410;2022-09-13T14:32:22;28.80;84.60
23051;DHT22;11693;51.358;12.410;2022-09-13T14:34:55;28.90;84.00
23051;DHT22;11693;51.358;12.410;2022-09-13T14:37:30;29.00;83.60
23051;DHT22;11693;51.358;12.410;2022-09-13T14:39:59;29.10;84.10
23051;DHT22;11693;51.358;12.410;2022-09-13T14:42:25;29.10;84.10
23051;DHT22;11693;51.358;12.410;2022-09-13T14:44:51;29.00;84.30
23051;DHT22;11693;51.358;12.410;2022-09-13T14:47:30;29.00;84.40
23051;DHT22;11693;51.358;12.410;2022-09-13T14:50:16;29.00;84.00
23051;DHT22;11693;51.358;12.410;2022-09-13T14:53:03;28.80;84.70
23051;DHT22;11693;51.358;12.410;2022-09-13T14:55:44;28.80;84.80
23051;DHT22;11693;51.358;12.410;2022-09-13T14:58:23;28.60;84.90
23051;DHT22;11693;51.358;12.410;2022-09-13T15:01:11;28.40;85.50
23051;DHT22;11693;51.358;12.410;2022-09-13T15:03:41;28.30;85.60
23051;DHT22;11693;51.358;12.410;2022-09-13T15:06:17;28.30;85.80
23051;DHT22;11693;51.358;12.410;2022-09-13T15:08:46;28.20;86.30
23051;DHT22;11693;51.358;12.410;2022-09-13T15:11:30;28.20;86.10
23051;DHT22;11693;51.358;12.410;2022-09-13T15:16:50;28.00;86.80
23051;DHT22;11693;51.358;12.410;2022-09-13T15:19:27;28.00;87.00
23051;DHT22;11693;51.358;12.410;2022-09-13T15:22:02;28.00;87.30
23051;DHT22;11693;51.358;12.410;2022-09-13T15:24:32;28.10;87.40
23051;DHT22;11693;51.358;12.410;2022-09-13T15:27:31;28.20;87.10
23051;DHT22;11693;51.358;12.410;2022-09-13T15:30:02;28.20;87.30
23051;DHT22;11693;51.358;12.410;2022-09-13T15:32:34;28.30;87.20
23051;DHT22;11693;51.358;12.410;2022-09-13T15:35:28;28.30;86.80
23051;DHT22;11693;51.358;12.410;2022-09-13T15:40:45;28.30;88.50
23051;DHT22;11693;51.358;12.410;2022-09-13T15:43:12;28.20;89.10
23051;DHT22;11693;51.358;12.410;2022-09-13T15:45:38;28.10;89.70
23051;DHT22;11693;51.358;12.410;2022-09-13T15:48:04;27.90;90.60
23051;DHT22;11693;51.358;12.410;2022-09-13T15:50:30;27.80;90.40
23051;DHT22;11693;51.358;12.410;2022-09-13T15:52:58;27.80;90.70
23051;DHT22;11693;51.358;12.410;2022-09-13T15:55:25;27.70;90.80
23051;DHT22;11693;51.358;12.410;2022-09-13T15:57:52;27.70;90.70
23051;DHT22;11693;51.358;12.410;2022-09-13T16:00:20;27.70;90.70
23051;DHT22;11693;51.358;12.410;2022-09-13T16:05:41;27.30;91.20
23051;DHT22;11693;51.358;12.410;2022-09-13T16:08:10;27.20;91.50
23051;DHT22;11693;51.358;12.410;2022-09-13T16:10:35;27.10;91.70
23051;DHT22;11693;51.358;12.410;2022-09-13T16:13:01;27.00;91.50
23051;DHT22;11693;51.358;12.410;2022-09-13T16:15:27;27.00;91.80
23051;DHT22;11693;51.358;12.410;2022-09-13T16:17:53;27.00;91.90
23051;DHT22;11693;51.358;12.410;2022-09-13T16:20:19;27.00;92.20
23051;DHT22;11693;51.358;12.410;2022-09-13T16:22:45;27.00;92.20
23051;DHT22;11693;51.358;12.410;2022-09-13T16:25:12;26.90;92.40
23051;DHT22;11693;51.358;12.410;2022-09-13T16:27:38;26.90;92.60
23051;DHT22;11693;51.358;12.410;2022-09-13T16:30:05;26.90;92.50
23051;DHT22;11693;51.358;12.410;2022-09-13T16:32:31;26.90;92.50
23051;DHT22;11693;51.358;12.410;2022-09-13T16:34:57;26.80;92.80
23051;DHT22;11693;51.358;12.410;2022-09-13T16:37:22;26.80;92.90
23051;DHT22;11693;51.358;12.410;2022-09-13T16:39:48;26.70;93.00
23051;DHT22;11693;51.358;12.410;2022-09-13T16:42:15;26.70;93.40
23051;DHT22;11693;51.358;12.410;2022-09-13T16:44:42;26.70;93.60
23051;DHT22;11693;51.358;12.410;2022-09-13T16:47:08;26.70;93.40
23051;DHT22;11693;51.358;12.410;2022-09-13T16:49:34;26.70;93.60
23051;DHT22;11693;51.358;12.410;2022-09-13T16:52:00;26.70;93.50
23051;DHT22;11693;51.358;12.410;2022-09-13T16:54:26;26.70;93.60
23051;DHT22;11693;51.358;12.410;2022-09-13T16:56:54;26.70;93.60
23051;DHT22;11693;51.358;12.410;2022-09-13T16:59:20;26.60;93.80
23051;DHT22;11693;51.358;12.410;2022-09-13T17:01:45;26.60;93.90
23051;DHT22;11693;51.358;12.410;2022-09-13T17:04:11;26.50;93.90
23051;DHT22;11693;51.358;12.410;2022-09-13T17:06:36;26.40;94.30
23051;DHT22;11693;51.358;12.410;2022-09-13T17:09:04;26.30;94.60
23051;DHT22;11693;51.358;12.410;2022-09-13T17:11:34;26.30;94.50
23051;DHT22;11693;51.358;12.410;2022-09-13T17:14:02;26.20;94.70
23051;DHT22;11693;51.358;12.410;2022-09-13T17:19:01;26.00;95.20
23051;DHT22;11693;51.358;12.410;2022-09-13T17:21:28;26.00;95.40
23051;DHT22;11693;51.358;12.410;2022-09-13T17:23:55;26.00;95.60
23051;DHT22;11693;51.358;12.410;2022-09-13T17:26:21;26.00;95.80
23051;DHT22;11693;51.358;12.410;2022-09-13T17:28:47;26.00;96.00
23051;DHT22;11693;51.358;12.410;2022-09-13T17:31:13;26.00;96.00
23051;DHT22;11693;51.358;12.410;2022-09-13T17:33:39;25.90;96.00
23051;DHT22;11693;51.358;12.410;2022-09-13T17:36:10;25.90;96.20
23051;DHT22;11693;51.358;12.410;2022-09-13T17:38:36;25.90;96.30
23051;DHT22;11693;51.358;12.410;2022-09-13T17:41:07;25.90;96.30
23051;DHT22;11693;51.358;12.410;2022-09-13T17:43:34;25.80;96.40
23051;DHT22;11693;51.358;12.410;2022-09-13T17:46:05;25.80;96.60
23051;DHT22;11693;51.358;12.410;2022-09-13T17:48:31;25.70;96.90
23051;DHT22;11693;51.358;12.410;2022-09-13T17:51:01;25.60;97.10
23051;DHT22;11693;51.358;12.410;2022-09-13T17:53:27;25.60;97.30
23051;DHT22;11693;51.358;12.410;2022-09-13T17:55:53;25.50;97.30
23051;DHT22;11693;51.358;12.410;2022-09-13T17:58:18;25.40;97.50
23051;DHT22;11693;51.358;12.410;2022-09-13T18:00:44;25.30;97.80
23051;DHT22;11693;51.358;12.410;2022-09-13T18:03:10;25.30;98.00
23051;DHT22;11693;51.358;12.410;2022-09-13T18:05:35;25.20;98.20
23051;DHT22;11693;51.358;12.410;2022-09-13T18:08:01;25.10;98.40
23051;DHT22;11693;51.358;12.410;2022-09-13T18:10:27;25.10;98.60
23051;DHT22;11693;51.358;12.410;2022-09-13T18:12:53;25.10;98.70
23051;DHT22;11693;51.358;12.410;2022-09-13T18:15:18;25.00;99.00
23051;DHT22;11693;51.358;12.410;2022-09-13T18:17:44;25.00;99.30
23051;DHT22;11693;51.358;12.410;2022-09-13T18:20:09;24.90;99.50
23051;DHT22;11693;51.358;12.410;2022-09-13T18:22:35;24.90;99.80
23051;DHT22;11693;51.358;12.410;2022-09-13T18:25:01;24.80;99.90
23051;DHT22;11693;51.358;12.410;2022-09-13T18:27:26;24.70;99.90
23051;DHT22;11693;51.358;12.410;2022-09-13T18:29:52;24.70;99.90
23051;DHT22;11693;51.358;12.410;2022-09-13T18:32:17;24.60;99.90